»·PEaware :: PAA5150 KSFO-KLAX

PAA5150 :: KSFO-KLAX

FLIGHT INFORMATION

Flight Status: Arrived
Operator:
PanAm
More flights by this operator :: More flights under this callsign
Pilot: Anonymous 17686 (17686)
Aircraft: BOEING 727-200
(B722)
More flights by this aircraft type
Origin: KSFO San Francisco Intl
United States
Destination: KLAX Los Angeles Intl
United States
More flights between these airports :: More routes between these airports
Route: +OFFSH1 RZS SADDE8
File this flight plan on PilotEdge
Remarks:
Altitude:
(Current/Filed)
31,000ft
Speed:
(Current/Filed)
450kts
Departed: 22-Sep-18 12:33 PM
Arrived: 22-Sep-18 01:32 PM
Distance/Time
Traveled:
293nm/0:59
Distance/Time
To Go:
Arrived

Flight Plot

Page will automatically refresh every two minutes.

Flight plan parsing failed; only flown route is shown


Map Options




Map Legend


Flown Route
Filed Route
Departure Airport
Arrival Airport
Navaid (VOR, NDB)
Fix

Horizontal Profiles

Position Reports

Time Latitude Longitude Heading Altitude Ground
Speed
22-Sep-18 12:13 37.617870 -122.380570 257 35ft 0kts
22-Sep-18 12:14 37.617870 -122.380570 257 35ft 0kts
22-Sep-18 12:15 37.617870 -122.380570 257 35ft 0kts
22-Sep-18 12:16 37.617870 -122.380570 257 35ft 0kts
22-Sep-18 12:17 37.617870 -122.380570 257 35ft 0kts
22-Sep-18 12:18 37.617870 -122.380570 257 35ft 0kts
22-Sep-18 12:19 37.617870 -122.380570 257 35ft 0kts
22-Sep-18 12:20 37.617870 -122.380570 257 35ft 0kts
22-Sep-18 12:21 37.617870 -122.380570 257 35ft 0kts
22-Sep-18 12:22 37.617870 -122.380570 257 35ft 0kts
22-Sep-18 12:23 37.617870 -122.380569 257 35ft 0kts
22-Sep-18 12:24 37.617958 -122.380056 260 35ft 2kts
22-Sep-18 12:25 37.618300 -122.379692 146 34ft 2kts
22-Sep-18 12:26 37.618561 -122.379902 143 35ft 0kts
22-Sep-18 12:27 37.618561 -122.379902 143 34ft 0kts
22-Sep-18 12:28 37.618518 -122.379832 118 34ft 3kts
22-Sep-18 12:29 37.617474 -122.376086 102 26ft 14kts
22-Sep-18 12:30 37.615540 -122.371197 118 15ft 19kts
22-Sep-18 12:31 37.612461 -122.364978 117 13ft 23kts
22-Sep-18 12:32 37.611126 -122.361745 115 12ft 18kts
22-Sep-18 12:33 37.610860 -122.359187 29 12ft 0kts
22-Sep-18 12:34 37.611173 -122.358955 31 12ft 9kts
22-Sep-18 12:35 37.621159 -122.380830 300 514ft 144kts
22-Sep-18 12:36 37.643051 -122.440355 293 3166ft 222kts
22-Sep-18 12:37 37.659168 -122.525629 249 6744ft 279kts
22-Sep-18 12:38 37.599772 -122.590099 216 10302ft 307kts
22-Sep-18 12:39 37.523178 -122.659860 215 12822ft 353kts
22-Sep-18 12:40 37.429192 -122.691730 178 15682ft 367kts
22-Sep-18 12:41 37.327619 -122.667505 168 18213ft 380kts
22-Sep-18 12:42 37.220250 -122.639972 167 20001ft 407kts
22-Sep-18 12:43 37.108269 -122.611244 168 22051ft 418kts
22-Sep-18 12:44 36.993127 -122.581611 168 23821ft 429kts
22-Sep-18 12:45 36.875313 -122.551255 167 25343ft 439kts
22-Sep-18 12:46 36.754867 -122.520058 167 26813ft 445kts
22-Sep-18 12:47 36.634956 -122.488891 167 28511ft 441kts
22-Sep-18 12:48 36.515584 -122.457923 167 30016ft 438kts
22-Sep-18 12:49 36.397246 -122.424135 154 30984ft 443kts
22-Sep-18 12:50 36.310780 -122.313039 127 31005ft 466kts
22-Sep-18 12:51 36.228088 -122.183964 128 31005ft 491kts
22-Sep-18 12:52 36.141762 -122.048868 127 31002ft 510kts
22-Sep-18 12:53 36.052845 -121.909669 127 31000ft 521kts
22-Sep-18 12:54 35.962884 -121.768560 127 31001ft 527kts
22-Sep-18 12:55 35.873162 -121.627892 127 30995ft 516kts
22-Sep-18 12:56 35.785778 -121.490899 128 30996ft 504kts
22-Sep-18 12:57 35.686224 -121.372291 132 30996ft 495kts
22-Sep-18 12:58 35.595017 -121.245951 130 31000ft 496kts
22-Sep-18 12:59 35.504708 -121.117482 130 30253ft 502kts
22-Sep-18 13:00 35.412727 -120.986766 130 27805ft 510kts
22-Sep-18 13:01 35.327776 -120.866464 130 25524ft 511kts
22-Sep-18 13:02 35.236078 -120.735628 126 23984ft 489kts
22-Sep-18 13:03 35.147835 -120.622275 129 23999ft 441kts
22-Sep-18 13:04 35.070565 -120.513992 130 23992ft 406kts
22-Sep-18 13:05 34.997287 -120.412572 134 24059ft 406kts
22-Sep-18 13:06 34.921889 -120.304570 132 24052ft 433kts
22-Sep-18 13:07 34.846431 -120.185667 132 24046ft 454kts
22-Sep-18 13:08 34.753065 -120.083887 139 24014ft 463kts
22-Sep-18 13:09 34.660773 -119.971352 139 24013ft 476kts
22-Sep-18 13:10 34.573170 -119.848135 128 24021ft 491kts
22-Sep-18 13:11 34.492327 -119.713958 131 24030ft 495kts
22-Sep-18 13:12 34.409016 -119.582824 120 23157ft 505kts
22-Sep-18 13:13 34.345361 -119.429439 121 20715ft 520kts
22-Sep-18 13:14 34.263737 -119.292358 129 17496ft 456kts
22-Sep-18 13:15 34.198534 -119.190020 130 14640ft 333kts
22-Sep-18 13:16 34.147726 -119.107754 134 12986ft 265kts
22-Sep-18 13:17 34.111461 -119.044684 107 13036ft 225kts
22-Sep-18 13:18 34.093146 -118.957547 113 13023ft 299kts
22-Sep-18 13:19 34.066499 -118.855642 108 12237ft 344kts
22-Sep-18 13:20 34.039076 -118.737372 105 10429ft 362kts
22-Sep-18 13:21 34.034823 -118.631057 90 8583ft 276kts
22-Sep-18 13:22 34.036529 -118.545461 103 7187ft 254kts
22-Sep-18 13:23 34.018300 -118.472187 111 6995ft 200kts
22-Sep-18 13:24 34.014133 -118.408480 87 7044ft 219kts
22-Sep-18 13:25 34.019665 -118.339253 87 6024ft 220kts
22-Sep-18 13:26 34.025062 -118.263608 87 4986ft 209kts
22-Sep-18 13:27 34.023994 -118.203013 133 4988ft 181kts
22-Sep-18 13:28 33.968483 -118.185553 171 3679ft 221kts
22-Sep-18 13:29 33.931013 -118.202407 266 2987ft 174kts
22-Sep-18 13:30 33.948844 -118.259804 291 2955ft 133kts
22-Sep-18 13:31 33.962170 -118.298055 272 2975ft 152kts
22-Sep-18 13:32 33.941316 -118.346322 262 927ft 141kts
22-Sep-18 13:33 33.937506 -118.381479 262 178ft 126kts
22-Sep-18 13:34 33.935954 -118.402887 289 123ft 19kts
22-Sep-18 13:35 33.936035 -118.403142 292 123ft 0kts
22-Sep-18 13:36 33.936070 -118.403246 291 123ft 0kts
22-Sep-18 13:37 33.936103 -118.403345 291 123ft 0kts
22-Sep-18 13:38 33.936760 -118.403828 305 124ft 17kts
22-Sep-18 13:39 33.938045 -118.404289 357 125ft 0kts
22-Sep-18 13:40 33.938045 -118.404289 357 125ft 0kts
22-Sep-18 13:41 33.938240 -118.404637 282 126ft 6kts
22-Sep-18 13:42 33.940469 -118.405884 267 127ft 3kts
22-Sep-18 13:43 33.940474 -118.406113 274 127ft 0kts

Navigation Log

Ident Type
Flight plan parsing failed, navigation log unavailable